createdAt,value
2023-05-24T00:04:30.095Z,68.20
2023-05-24T00:14:34.367Z,68.52
2023-05-24T00:24:38.382Z,68.68
2023-05-24T00:34:45.750Z,68.98
2023-05-24T00:44:49.640Z,69.84
2023-05-24T00:54:53.196Z,70.69
2023-05-24T01:04:57.535Z,71.67
2023-05-24T01:15:01.477Z,72.32
2023-05-24T01:25:12.639Z,73.05
2023-05-24T01:35:16.124Z,73.54
2023-05-24T01:45:29.306Z,73.63
2023-05-24T01:55:34.774Z,73.92
2023-05-24T02:05:39.550Z,74.65
2023-05-24T02:15:44.404Z,75.66
2023-05-24T02:25:48.419Z,75.93
2023-05-24T02:35:52.046Z,76.59
2023-05-24T02:45:55.867Z,77.40
2023-05-24T02:56:00.796Z,78.23
2023-05-24T03:06:03.414Z,78.84
2023-05-24T03:16:08.190Z,79.06
2023-05-24T03:26:11.865Z,79.52
2023-05-24T03:36:15.918Z,79.36
2023-05-24T03:46:19.796Z,79.22
2023-05-24T03:56:24.045Z,79.28
2023-05-24T04:06:27.304Z,79.50
2023-05-24T04:16:31.756Z,80.10
2023-05-24T04:26:37.129Z,80.55
2023-05-24T04:36:40.839Z,81.64
2023-05-24T04:46:44.740Z,81.79
2023-05-24T04:56:48.926Z,81.68
2023-05-24T05:06:52.853Z,81.31
2023-05-24T05:16:56.563Z,81.04
2023-05-24T05:27:00.347Z,80.75
2023-05-24T05:37:04.655Z,81.18
2023-05-24T05:47:08.454Z,81.56
2023-05-24T05:57:12.471Z,82.22
2023-05-24T06:07:16.804Z,82.57
2023-05-24T06:17:23.742Z,83.27
2023-05-24T07:07:39.734Z,85.02
2023-05-24T07:17:43.407Z,84.93
2023-05-24T07:27:47.573Z,84.62
2023-05-24T07:37:51.478Z,84.32
2023-05-24T07:47:56.819Z,83.98
2023-05-24T07:58:00.924Z,83.40
2023-05-24T08:08:05.046Z,82.91
2023-05-24T08:18:09.087Z,82.56
2023-05-24T08:28:13.481Z,82.11
2023-05-24T08:38:17.546Z,81.87
2023-05-24T08:48:22.364Z,81.63
2023-05-24T08:58:26.614Z,81.54
2023-05-24T09:08:33.015Z,81.26
2023-05-24T09:18:36.677Z,80.85
2023-05-24T09:28:40.570Z,80.70
2023-05-24T09:38:44.844Z,80.40
2023-05-24T09:48:59.012Z,80.40
2023-05-24T09:59:06.657Z,80.04
2023-05-24T10:09:11.041Z,79.91
2023-05-24T10:19:16.449Z,79.78
2023-05-24T10:29:20.448Z,79.60
2023-05-24T10:39:26.950Z,79.61
2023-05-24T10:49:30.865Z,79.54
2023-05-24T10:59:39.168Z,79.38
2023-05-24T11:09:45.533Z,78.49
2023-05-24T11:19:52.313Z,78.12
2023-05-24T11:29:59.082Z,77.88
2023-05-24T11:40:03.517Z,77.88
2023-05-24T11:50:08.605Z,77.95
2023-05-24T12:00:16.609Z,77.69
2023-05-24T12:10:22.942Z,76.71
2023-05-24T12:20:28.259Z,76.04
2023-05-24T12:30:32.264Z,75.76
2023-05-24T12:40:36.764Z,75.58
2023-05-24T12:50:41.027Z,75.75
2023-05-24T13:00:45.159Z,75.11
2023-05-24T13:10:49.444Z,74.83
2023-05-24T13:20:52.981Z,74.67
2023-05-24T13:30:56.882Z,74.85
2023-05-24T13:41:00.792Z,74.45
2023-05-24T13:51:05.230Z,73.88
2023-05-24T14:01:09.912Z,74.11
2023-05-24T14:11:15.908Z,74.03
2023-05-24T14:21:21.184Z,74.17
2023-05-24T14:31:25.349Z,74.10
2023-05-24T14:41:29.159Z,74.23
2023-05-24T14:51:32.893Z,74.21
2023-05-24T15:01:37.285Z,74.09
2023-05-24T15:11:41.538Z,74.11
2023-05-24T15:21:45.323Z,74.29
2023-05-24T15:31:49.130Z,74.36
2023-05-24T15:41:53.067Z,74.40
2023-05-24T16:02:03.405Z,74.73
2023-05-24T16:12:08.428Z,74.82
2023-05-24T16:22:12.506Z,74.94
2023-05-24T16:32:16.541Z,74.92
2023-05-24T16:42:20.636Z,75.14
2023-05-24T16:52:24.508Z,75.23
2023-05-24T17:02:28.621Z,75.58
2023-05-24T17:12:32.352Z,75.64
2023-05-24T17:22:36.337Z,75.70
2023-05-24T17:32:41.130Z,75.80
2023-05-24T17:42:45.116Z,75.89
2023-05-24T18:02:52.717Z,76.61
2023-05-24T18:12:56.795Z,76.69
2023-05-24T18:23:00.592Z,76.89
2023-05-24T18:33:07.879Z,77.03
2023-05-24T18:43:12.561Z,77.10
2023-05-24T18:53:16.331Z,77.25
2023-05-24T19:03:19.901Z,77.50
2023-05-24T19:13:25.467Z,77.59
2023-05-24T19:23:29.332Z,77.63
2023-05-24T19:33:33.431Z,77.76
2023-05-24T19:43:37.500Z,77.91
2023-05-24T19:53:41.124Z,77.97
2023-05-24T20:03:44.566Z,78.03
2023-05-24T20:13:48.891Z,78.12
2023-05-24T20:23:57.723Z,78.38
2023-05-24T20:34:02.534Z,78.41
2023-05-24T20:44:06.456Z,78.46
2023-05-24T20:54:11.397Z,78.64
2023-05-24T21:04:15.665Z,78.79
2023-05-24T21:14:19.423Z,78.74
2023-05-24T21:24:23.029Z,78.75
2023-05-24T21:34:26.882Z,78.91
2023-05-24T21:44:30.435Z,79.05
2023-05-24T21:54:34.093Z,79.21
2023-05-24T22:04:38.008Z,79.37
2023-05-24T22:14:44.564Z,79.46
2023-05-24T22:24:48.400Z,79.39
2023-05-24T22:34:51.573Z,79.66
2023-05-24T22:44:55.237Z,79.70
2023-05-24T22:54:58.703Z,79.66
2023-05-24T23:05:02.957Z,79.71
2023-05-24T23:15:08.773Z,79.81
2023-05-24T23:25:12.791Z,80.05
2023-05-24T23:35:16.627Z,80.36
2023-05-24T23:45:20.357Z,80.41
2023-05-24T23:55:24.398Z,80.44
